sensor_id;sensor_type;location;lat;lon;timestamp;pressure;altitude;pressure_sealevel;temperature;humidity
21838;BME280;11081;45.946;6.140;2023-12-20T00:01:21;95694.94;;;5.22;82.16
21838;BME280;11081;45.946;6.140;2023-12-20T00:03:49;95686.78;;;5.10;82.41
21838;BME280;11081;45.946;6.140;2023-12-20T00:06:17;95676.19;;;5.19;82.20
21838;BME280;11081;45.946;6.140;2023-12-20T00:08:45;95677.56;;;5.30;82.26
21838;BME280;11081;45.946;6.140;2023-12-20T00:11:13;95668.06;;;5.45;81.10
21838;BME280;11081;45.946;6.140;2023-12-20T00:13:41;95670.28;;;5.48;81.02
21838;BME280;11081;45.946;6.140;2023-12-20T00:16:10;95655.75;;;5.47;80.86
21838;BME280;11081;45.946;6.140;2023-12-20T00:18:38;95645.44;;;5.39;81.42
21838;BME280;11081;45.946;6.140;2023-12-20T00:21:06;95647.16;;;5.47;81.71
21838;BME280;11081;45.946;6.140;2023-12-20T00:23:34;95642.81;;;5.47;80.53
21838;BME280;11081;45.946;6.140;2023-12-20T00:26:02;95644.75;;;5.45;81.06
21838;BME280;11081;45.946;6.140;2023-12-20T00:28:30;95637.63;;;5.47;80.71
21838;BME280;11081;45.946;6.140;2023-12-20T00:30:59;95634.06;;;5.48;80.32
21838;BME280;11081;45.946;6.140;2023-12-20T00:33:28;95634.06;;;5.48;79.72
21838;BME280;11081;45.946;6.140;2023-12-20T00:35:57;95619.78;;;5.53;79.50
21838;BME280;11081;45.946;6.140;2023-12-20T00:38:24;95615.03;;;5.56;80.10
21838;BME280;11081;45.946;6.140;2023-12-20T00:40:52;95613.50;;;5.62;79.11
21838;BME280;11081;45.946;6.140;2023-12-20T00:43:20;95628.72;;;5.65;79.25
21838;BME280;11081;45.946;6.140;2023-12-20T00:45:48;95635.50;;;5.66;80.32
21838;BME280;11081;45.946;6.140;2023-12-20T00:48:16;95633.19;;;5.71;80.62
21838;BME280;11081;45.946;6.140;2023-12-20T00:50:45;95642.22;;;5.37;80.34
21838;BME280;11081;45.946;6.140;2023-12-20T00:53:13;95642.59;;;5.34;81.58
21838;BME280;11081;45.946;6.140;2023-12-20T00:55:41;95639.00;;;5.35;80.09
21838;BME280;11081;45.946;6.140;2023-12-20T00:58:10;95629.91;;;5.39;79.81
21838;BME280;11081;45.946;6.140;2023-12-20T01:00:38;95634.31;;;5.54;79.20
21838;BME280;11081;45.946;6.140;2023-12-20T01:03:10;95651.03;;;5.66;80.24
21838;BME280;11081;45.946;6.140;2023-12-20T01:05:38;95649.06;;;5.68;80.08
21838;BME280;11081;45.946;6.140;2023-12-20T01:08:07;95657.81;;;5.67;79.91
21838;BME280;11081;45.946;6.140;2023-12-20T01:10:35;95652.28;;;5.70;79.82
21838;BME280;11081;45.946;6.140;2023-12-20T01:13:03;95642.81;;;5.77;79.96
21838;BME280;11081;45.946;6.140;2023-12-20T01:15:30;95629.16;;;5.83;79.11
21838;BME280;11081;45.946;6.140;2023-12-20T01:17:58;95631.09;;;5.81;79.55
21838;BME280;11081;45.946;6.140;2023-12-20T01:20:26;95641.94;;;5.70;79.76
21838;BME280;11081;45.946;6.140;2023-12-20T01:22:54;95633.91;;;5.65;80.01
21838;BME280;11081;45.946;6.140;2023-12-20T01:25:23;95628.34;;;5.68;80.80
21838;BME280;11081;45.946;6.140;2023-12-20T01:27:51;95623.19;;;5.68;80.66
21838;BME280;11081;45.946;6.140;2023-12-20T01:30:19;95641.47;;;5.66;80.70
21838;BME280;11081;45.946;6.140;2023-12-20T01:32:47;95638.72;;;5.68;81.28
21838;BME280;11081;45.946;6.140;2023-12-20T01:35:15;95637.56;;;5.70;80.44
21838;BME280;11081;45.946;6.140;2023-12-20T01:37:43;95638.34;;;5.71;80.71
21838;BME280;11081;45.946;6.140;2023-12-20T01:40:12;95648.00;;;5.77;80.64
21838;BME280;11081;45.946;6.140;2023-12-20T01:42:41;95641.94;;;5.70;80.75
21838;BME280;11081;45.946;6.140;2023-12-20T01:45:10;95638.34;;;5.71;81.00
21838;BME280;11081;45.946;6.140;2023-12-20T01:47:38;95654.78;;;5.78;81.44
21838;BME280;11081;45.946;6.140;2023-12-20T01:50:07;95652.81;;;5.80;81.04
21838;BME280;11081;45.946;6.140;2023-12-20T01:52:36;95655.13;;;5.75;81.46
21838;BME280;11081;45.946;6.140;2023-12-20T01:55:05;95644.69;;;5.68;81.34
21838;BME280;11081;45.946;6.140;2023-12-20T01:57:41;95637.09;;;5.67;82.60
21838;BME280;11081;45.946;6.140;2023-12-20T02:00:12;95643.34;;;5.58;82.73
21838;BME280;11081;45.946;6.140;2023-12-20T02:02:41;95640.47;;;5.53;83.32
21838;BME280;11081;45.946;6.140;2023-12-20T02:05:09;95639.41;;;5.62;84.78
21838;BME280;11081;45.946;6.140;2023-12-20T02:07:38;95627.81;;;5.58;84.65
21838;BME280;11081;45.946;6.140;2023-12-20T02:10:07;95628.16;;;5.55;87.02
21838;BME280;11081;45.946;6.140;2023-12-20T02:12:35;95631.19;;;5.43;89.61
21838;BME280;11081;45.946;6.140;2023-12-20T02:15:05;95625.31;;;5.49;89.77
21838;BME280;11081;45.946;6.140;2023-12-20T02:17:33;95616.91;;;5.47;88.99
21838;BME280;11081;45.946;6.140;2023-12-20T02:20:01;95621.38;;;5.54;89.63
21838;BME280;11081;45.946;6.140;2023-12-20T02:22:31;95621.94;;;5.64;89.29
21838;BME280;11081;45.946;6.140;2023-12-20T02:24:59;95617.28;;;5.74;89.55
21838;BME280;11081;45.946;6.140;2023-12-20T02:27:28;95606.56;;;5.77;90.16
21838;BME280;11081;45.946;6.140;2023-12-20T02:29:56;95613.34;;;5.78;90.29
21838;BME280;11081;45.946;6.140;2023-12-20T02:32:25;95609.78;;;5.79;91.03
21838;BME280;11081;45.946;6.140;2023-12-20T02:34:55;95604.59;;;5.79;91.25
21838;BME280;11081;45.946;6.140;2023-12-20T02:37:23;95603.72;;;5.72;91.75
21838;BME280;11081;45.946;6.140;2023-12-20T02:39:52;95608.34;;;5.62;92.06
21838;BME280;11081;45.946;6.140;2023-12-20T02:42:20;95609.06;;;5.56;91.70
21838;BME280;11081;45.946;6.140;2023-12-20T02:44:47;95602.28;;;5.55;92.55
21838;BME280;11081;45.946;6.140;2023-12-20T02:47:15;95607.44;;;5.55;93.01
21838;BME280;11081;45.946;6.140;2023-12-20T02:49:43;95610.66;;;5.57;93.33
21838;BME280;11081;45.946;6.140;2023-12-20T02:52:11;95611.91;;;5.61;94.46
21838;BME280;11081;45.946;6.140;2023-12-20T02:54:39;95600.41;;;5.63;95.14
21838;BME280;11081;45.946;6.140;2023-12-20T02:57:09;95597.28;;;5.68;94.49
21838;BME280;11081;45.946;6.140;2023-12-20T02:59:37;95606.84;;;5.67;93.88
21838;BME280;11081;45.946;6.140;2023-12-20T03:02:04;95604.06;;;5.69;93.91
21838;BME280;11081;45.946;6.140;2023-12-20T03:04:33;95604.06;;;5.69;95.25
21838;BME280;11081;45.946;6.140;2023-12-20T03:07:01;95591.75;;;5.71;94.92
21838;BME280;11081;45.946;6.140;2023-12-20T03:09:29;95591.75;;;5.71;94.84
21838;BME280;11081;45.946;6.140;2023-12-20T03:12:14;95585.31;;;5.67;95.89
21838;BME280;11081;45.946;6.140;2023-12-20T03:14:41;95584.16;;;5.69;95.06
21838;BME280;11081;45.946;6.140;2023-12-20T03:17:11;95588.16;;;5.72;95.64
21838;BME280;11081;45.946;6.140;2023-12-20T03:19:38;95577.81;;;5.72;95.45
21838;BME280;11081;45.946;6.140;2023-12-20T03:22:06;95577.81;;;5.72;95.56
21838;BME280;11081;45.946;6.140;2023-12-20T03:24:34;95574.44;;;5.71;96.04
21838;BME280;11081;45.946;6.140;2023-12-20T03:27:03;95579.78;;;5.70;95.33
21838;BME280;11081;45.946;6.140;2023-12-20T03:29:32;95582.19;;;5.71;94.98
21838;BME280;11081;45.946;6.140;2023-12-20T03:32:00;95584.25;;;5.76;95.75
21838;BME280;11081;45.946;6.140;2023-12-20T03:34:28;95580.03;;;5.75;94.70
21838;BME280;11081;45.946;6.140;2023-12-20T03:36:56;95573.88;;;5.76;96.05
21838;BME280;11081;45.946;6.140;2023-12-20T03:39:24;95585.84;;;5.77;96.17
21838;BME280;11081;45.946;6.140;2023-12-20T03:41:52;95576.28;;;5.77;96.31
21838;BME280;11081;45.946;6.140;2023-12-20T03:44:20;95576.47;;;5.76;96.11
21838;BME280;11081;45.946;6.140;2023-12-20T03:46:50;95579.97;;;5.54;97.64
21838;BME280;11081;45.946;6.140;2023-12-20T03:49:18;95577.47;;;5.45;100.00
21838;BME280;11081;45.946;6.140;2023-12-20T03:51:46;95560.84;;;5.55;99.58
21838;BME280;11081;45.946;6.140;2023-12-20T03:54:14;95568.88;;;5.60;98.46
21838;BME280;11081;45.946;6.140;2023-12-20T03:56:41;95564.97;;;5.64;97.82
21838;BME280;11081;45.946;6.140;2023-12-20T03:59:09;95569.78;;;5.67;98.38
21838;BME280;11081;45.946;6.140;2023-12-20T04:01:37;95575.59;;;5.69;99.22
21838;BME280;11081;45.946;6.140;2023-12-20T04:04:07;95566.47;;;5.73;99.12
21838;BME280;11081;45.946;6.140;2023-12-20T04:06:35;95570.31;;;5.77;98.51
21838;BME280;11081;45.946;6.140;2023-12-20T04:09:03;95571.09;;;5.77;98.74
21838;BME280;11081;45.946;6.140;2023-12-20T04:11:31;95571.09;;;5.77;98.52
21838;BME280;11081;45.946;6.140;2023-12-20T04:13:59;95565.13;;;5.77;98.77
21838;BME280;11081;45.946;6.140;2023-12-20T04:16:27;95567.09;;;5.75;99.56
21838;BME280;11081;45.946;6.140;2023-12-20T04:18:55;95554.34;;;5.73;99.30
21838;BME280;11081;45.946;6.140;2023-12-20T04:21:24;95563.88;;;5.73;100.00
21838;BME280;11081;45.946;6.140;2023-12-20T04:23:52;95551.19;;;5.78;99.81
21838;BME280;11081;45.946;6.140;2023-12-20T04:26:20;95552.00;;;5.78;99.52
21838;BME280;11081;45.946;6.140;2023-12-20T04:28:48;95556.13;;;5.73;100.00
21838;BME280;11081;45.946;6.140;2023-12-20T04:31:19;95557.84;;;5.66;100.00
21838;BME280;11081;45.946;6.140;2023-12-20T04:33:47;95552.28;;;5.69;100.00
21838;BME280;11081;45.946;6.140;2023-12-20T04:36:15;95558.44;;;5.68;100.00
21838;BME280;11081;45.946;6.140;2023-12-20T04:38:44;95555.25;;;5.66;100.00
21838;BME280;11081;45.946;6.140;2023-12-20T04:41:12;95555.50;;;5.71;100.00
21838;BME280;11081;45.946;6.140;2023-12-20T04:43:42;95556.75;;;5.75;100.00
21838;BME280;11081;45.946;6.140;2023-12-20T04:46:10;95545.22;;;5.77;100.00
21838;BME280;11081;45.946;6.140;2023-12-20T04:48:38;95552.81;;;5.79;100.00
21838;BME280;11081;45.946;6.140;2023-12-20T04:51:06;95547.25;;;5.82;100.00
21838;BME280;11081;45.946;6.140;2023-12-20T04:53:34;95545.47;;;5.82;100.00
21838;BME280;11081;45.946;6.140;2023-12-20T04:56:04;95549.22;;;5.80;100.00
21838;BME280;11081;45.946;6.140;2023-12-20T04:58:32;95543.44;;;5.78;100.00
21838;BME280;11081;45.946;6.140;2023-12-20T05:01:00;95542.19;;;5.74;100.00
21838;BME280;11081;45.946;6.140;2023-12-20T05:03:28;95542.13;;;5.67;100.00
21838;BME280;11081;45.946;6.140;2023-12-20T05:05:56;95540.69;;;5.65;100.00
21838;BME280;11081;45.946;6.140;2023-12-20T05:08:24;95545.50;;;5.68;100.00
21838;BME280;11081;45.946;6.140;2023-12-20T05:10:54;95542.28;;;5.66;100.00
21838;BME280;11081;45.946;6.140;2023-12-20T05:13:23;95556.03;;;5.51;100.00
21838;BME280;11081;45.946;6.140;2023-12-20T05:16:04;95549.69;;;5.54;100.00
21838;BME280;11081;45.946;6.140;2023-12-20T05:18:32;95547.47;;;5.66;100.00
21838;BME280;11081;45.946;6.140;2023-12-20T05:21:00;95555.50;;;5.71;100.00
21838;BME280;11081;45.946;6.140;2023-12-20T05:23:28;95552.72;;;5.72;100.00
21838;BME280;11081;45.946;6.140;2023-12-20T05:25:56;95547.19;;;5.75;100.00
21838;BME280;11081;45.946;6.140;2023-12-20T05:28:26;95552.53;;;5.74;100.00
21838;BME280;11081;45.946;6.140;2023-12-20T05:30:54;95548.78;;;5.76;100.00
21838;BME280;11081;45.946;6.140;2023-12-20T05:33:23;95552.19;;;5.77;100.00
21838;BME280;11081;45.946;6.140;2023-12-20T05:35:51;95546.81;;;5.78;100.00
21838;BME280;11081;45.946;6.140;2023-12-20T05:38:19;95554.41;;;5.80;100.00
21838;BME280;11081;45.946;6.140;2023-12-20T05:40:47;95544.84;;;5.80;100.00
21838;BME280;11081;45.946;6.140;2023-12-20T05:43:15;95552.44;;;5.82;100.00
21838;BME280;11081;45.946;6.140;2023-12-20T05:45:44;95551.28;;;5.85;100.00
21838;BME280;11081;45.946;6.140;2023-12-20T05:48:12;95543.06;;;5.81;100.00
21838;BME280;11081;45.946;6.140;2023-12-20T05:50:40;95542.06;;;5.82;100.00
21838;BME280;11081;45.946;6.140;2023-12-20T05:53:08;95540.28;;;5.82;100.00
21838;BME280;11081;45.946;6.140;2023-12-20T05:55:36;95543.72;;;5.83;100.00
21838;BME280;11081;45.946;6.140;2023-12-20T05:58:04;95546.13;;;5.85;100.00
21838;BME280;11081;45.946;6.140;2023-12-20T06:00:32;95547.97;;;5.76;100.00
21838;BME280;11081;45.946;6.140;2023-12-20T06:03:01;95544.59;;;5.61;100.00
21838;BME280;11081;45.946;6.140;2023-12-20T06:05:31;95555.69;;;5.55;100.00
21838;BME280;11081;45.946;6.140;2023-12-20T06:07:59;95567.28;;;5.59;100.00
21838;BME280;11081;45.946;6.140;2023-12-20T06:10:29;95573.19;;;5.53;100.00
21838;BME280;11081;45.946;6.140;2023-12-20T06:12:57;95586.75;;;5.55;100.00
21838;BME280;11081;45.946;6.140;2023-12-20T06:15:27;95583.88;;;5.49;100.00
21838;BME280;11081;45.946;6.140;2023-12-20T06:17:55;95586.75;;;5.55;100.00
21838;BME280;11081;45.946;6.140;2023-12-20T06:20:24;95583.72;;;5.66;100.00
21838;BME280;11081;45.946;6.140;2023-12-20T06:22:52;95585.22;;;5.75;100.00
21838;BME280;11081;45.946;6.140;2023-12-20T06:25:20;95582.72;;;5.81;100.00
21838;BME280;11081;45.946;6.140;2023-12-20T06:27:48;95579.22;;;5.89;100.00
21838;BME280;11081;45.946;6.140;2023-12-20T06:30:16;95578.53;;;5.95;100.00
21838;BME280;11081;45.946;6.140;2023-12-20T06:32:44;95574.06;;;5.89;100.00
21838;BME280;11081;45.946;6.140;2023-12-20T06:35:13;95574.78;;;5.83;100.00
21838;BME280;11081;45.946;6.140;2023-12-20T06:37:43;95569.94;;;5.80;100.00
21838;BME280;11081;45.946;6.140;2023-12-20T06:40:11;95567.44;;;5.87;100.00
21838;BME280;11081;45.946;6.140;2023-12-20T06:42:44;95568.72;;;5.91;100.00
21838;BME280;11081;45.946;6.140;2023-12-20T06:45:27;95570.50;;;5.90;100.00
21838;BME280;11081;45.946;6.140;2023-12-20T06:47:55;95585.84;;;5.77;100.00
21838;BME280;11081;45.946;6.140;2023-12-20T06:50:23;95583.34;;;5.69;100.00
21838;BME280;11081;45.946;6.140;2023-12-20T06:52:52;95582.38;;;5.55;100.00
21838;BME280;11081;45.946;6.140;2023-12-20T06:55:20;95577.28;;;5.62;100.00
21838;BME280;11081;45.946;6.140;2023-12-20T06:57:48;95562.28;;;5.72;100.00
21838;BME280;11081;45.946;6.140;2023-12-20T07:00:17;95578.00;;;5.85;100.00
21838;BME280;11081;45.946;6.140;2023-12-20T07:02:47;95577.28;;;5.91;100.00
21838;BME280;11081;45.946;6.140;2023-12-20T07:05:16;95576.94;;;5.94;100.00
21838;BME280;11081;45.946;6.140;2023-12-20T07:07:46;95578.81;;;5.86;100.00
21838;BME280;11081;45.946;6.140;2023-12-20T07:10:17;95583.88;;;5.79;100.00
21838;BME280;11081;45.946;6.140;2023-12-20T07:12:45;95582.72;;;5.81;100.00
21838;BME280;11081;45.946;6.140;2023-12-20T07:15:13;95585.41;;;5.88;100.00
21838;BME280;11081;45.946;6.140;2023-12-20T07:17:41;95580.88;;;5.90;100.00
21838;BME280;11081;45.946;6.140;2023-12-20T07:20:10;95590.88;;;5.93;100.00
21838;BME280;11081;45.946;6.140;2023-12-20T07:22:38;95601.59;;;5.90;100.00
21838;BME280;11081;45.946;6.140;2023-12-20T07:25:07;95587.00;;;5.74;100.00
21838;BME280;11081;45.946;6.140;2023-12-20T07:27:36;95587.44;;;5.78;100.00
21838;BME280;11081;45.946;6.140;2023-12-20T07:30:08;95578.97;;;5.84;100.00
21838;BME280;11081;45.946;6.140;2023-12-20T07:32:36;95594.53;;;5.84;100.00
21838;BME280;11081;45.946;6.140;2023-12-20T07:35:04;95593.25;;;5.80;100.00
21838;BME280;11081;45.946;6.140;2023-12-20T07:37:33;95597.13;;;5.84;100.00
21838;BME280;11081;45.946;6.140;2023-12-20T07:40:01;95592.47;;;5.94;100.00
21838;BME280;11081;45.946;6.140;2023-12-20T07:42:30;95610.25;;;5.97;100.00
21838;BME280;11081;45.946;6.140;2023-12-20T07:44:59;95608.38;;;5.91;100.00
21838;BME280;11081;45.946;6.140;2023-12-20T07:47:27;95616.78;;;5.93;100.00
21838;BME280;11081;45.946;6.140;2023-12-20T07:49:55;95613.56;;;5.91;100.00
21838;BME280;11081;45.946;6.140;2023-12-20T07:52:23;95612.22;;;5.95;100.00
21838;BME280;11081;45.946;6.140;2023-12-20T07:54:52;95614.44;;;5.98;100.00
21838;BME280;11081;45.946;6.140;2023-12-20T07:57:20;95620.84;;;6.02;100.00
21838;BME280;11081;45.946;6.140;2023-12-20T07:59:48;95624.44;;;6.01;100.00
21838;BME280;11081;45.946;6.140;2023-12-20T08:02:18;95618.00;;;5.97;100.00
21838;BME280;11081;45.946;6.140;2023-12-20T08:04:45;95626.75;;;5.96;100.00
21838;BME280;11081;45.946;6.140;2023-12-20T08:07:13;95632.31;;;5.93;100.00
21838;BME280;11081;45.946;6.140;2023-12-20T08:09:41;95637.56;;;6.00;100.00
21838;BME280;11081;45.946;6.140;2023-12-20T08:12:10;95647.13;;;5.99;100.00
21838;BME280;11081;45.946;6.140;2023-12-20T08:14:38;95641.94;;;5.99;100.00
21838;BME280;11081;45.946;6.140;2023-12-20T08:17:06;95636.41;;;6.02;100.00
21838;BME280;11081;45.946;6.140;2023-12-20T08:19:35;95636.41;;;6.02;100.00
21838;BME280;11081;45.946;6.140;2023-12-20T08:22:03;95634.78;;;6.01;100.00
21838;BME280;11081;45.946;6.140;2023-12-20T08:24:31;95649.09;;;5.97;100.00
21838;BME280;11081;45.946;6.140;2023-12-20T08:26:59;95659.81;;;5.94;100.00
21838;BME280;11081;45.946;6.140;2023-12-20T08:29:27;95652.28;;;5.85;100.00
21838;BME280;11081;45.946;6.140;2023-12-20T08:31:55;95650.81;;;5.90;100.00
21838;BME280;11081;45.946;6.140;2023-12-20T08:34:23;95658.28;;;6.00;100.00
21838;BME280;11081;45.946;6.140;2023-12-20T08:36:53;95657.13;;;6.02;100.00
21838;BME280;11081;45.946;6.140;2023-12-20T08:39:21;95649.63;;;6.07;100.00
21838;BME280;11081;45.946;6.140;2023-12-20T08:41:49;95641.75;;;6.16;100.00
21838;BME280;11081;45.946;6.140;2023-12-20T08:44:17;95632.63;;;6.20;100.00
21838;BME280;11081;45.946;6.140;2023-12-20T08:46:45;95639.84;;;6.24;100.00
21838;BME280;11081;45.946;6.140;2023-12-20T08:49:13;95636.66;;;6.22;100.00
21838;BME280;11081;45.946;6.140;2023-12-20T08:51:41;95635.22;;;6.20;100.00
21838;BME280;11081;45.946;6.140;2023-12-20T08:54:11;95646.56;;;6.19;100.00
21838;BME280;11081;45.946;6.140;2023-12-20T08:56:39;95651.41;;;6.22;100.00
21838;BME280;11081;45.946;6.140;2023-12-20T08:59:07;95659.44;;;6.27;100.00
21838;BME280;11081;45.946;6.140;2023-12-20T09:01:36;95651.75;;;6.19;100.00
21838;BME280;11081;45.946;6.140;2023-12-20T09:04:04;95661.44;;;5.95;100.00
21838;BME280;11081;45.946;6.140;2023-12-20T09:06:33;95655.31;;;5.88;100.00
21838;BME280;11081;45.946;6.140;2023-12-20T09:09:01;95663.16;;;5.80;100.00
21838;BME280;11081;45.946;6.140;2023-12-20T09:11:30;95650.31;;;5.72;100.00
21838;BME280;11081;45.946;6.140;2023-12-20T09:13:59;95652.53;;;5.75;100.00
21838;BME280;11081;45.946;6.140;2023-12-20T09:16:27;95664.50;;;5.76;100.00
21838;BME280;11081;45.946;6.140;2023-12-20T09:18:55;95666.81;;;5.56;100.00
21838;BME280;11081;45.946;6.140;2023-12-20T09:21:23;95669.38;;;5.41;100.00
21838;BME280;11081;45.946;6.140;2023-12-20T09:23:51;95667.75;;;5.40;100.00
21838;BME280;11081;45.946;6.140;2023-12-20T09:26:19;95665.03;;;5.42;100.00
21838;BME280;11081;45.946;6.140;2023-12-20T09:28:48;95663.28;;;5.34;100.00
21838;BME280;11081;45.946;6.140;2023-12-20T09:31:16;95671.81;;;5.43;100.00
21838;BME280;11081;45.946;6.140;2023-12-20T09:33:44;95674.22;;;5.44;100.00
21838;BME280;11081;45.946;6.140;2023-12-20T09:36:12;95672.25;;;5.46;100.00
21838;BME280;11081;45.946;6.140;2023-12-20T09:38:41;95669.56;;;5.55;100.00
21838;BME280;11081;45.946;6.140;2023-12-20T09:41:12;95666.00;;;5.56;100.00
21838;BME280;11081;45.946;6.140;2023-12-20T09:43:41;95666.94;;;5.63;100.00
21838;BME280;11081;45.946;6.140;2023-12-20T09:46:12;95667.38;;;5.66;100.00
21838;BME280;11081;45.946;6.140;2023-12-20T09:48:43;95657.47;;;5.70;100.00
21838;BME280;11081;45.946;6.140;2023-12-20T09:51:12;95666.47;;;5.74;100.00
21838;BME280;11081;45.946;6.140;2023-12-20T09:53:41;95670.31;;;5.78;100.00
21838;BME280;11081;45.946;6.140;2023-12-20T09:56:10;95664.09;;;5.87;100.00
21838;BME280;11081;45.946;6.140;2023-12-20T09:58:39;95665.94;;;5.78;100.00
21838;BME280;11081;45.946;6.140;2023-12-20T10:01:07;95673.88;;;5.77;100.00
21838;BME280;11081;45.946;6.140;2023-12-20T10:03:39;95670.69;;;5.75;100.00
21838;BME280;11081;45.946;6.140;2023-12-20T10:06:08;95659.31;;;5.61;100.00
21838;BME280;11081;45.946;6.140;2023-12-20T10:08:36;95668.84;;;5.61;100.00
21838;BME280;11081;45.946;6.140;2023-12-20T10:11:05;95666.22;;;5.69;100.00
21838;BME280;11081;45.946;6.140;2023-12-20T10:13:33;95662.28;;;5.73;100.00
21838;BME280;11081;45.946;6.140;2023-12-20T10:16:01;95651.91;;;5.73;100.00
21838;BME280;11081;45.946;6.140;2023-12-20T10:18:29;95641.94;;;5.70;100.00
21838;BME280;11081;45.946;6.140;2023-12-20T10:21:07;95639.97;;;5.72;100.00
21838;BME280;11081;45.946;6.140;2023-12-20T10:23:36;95648.00;;;5.77;100.00
21838;BME280;11081;45.946;6.140;2023-12-20T10:26:06;95635.41;;;5.74;100.00
21838;BME280;11081;45.946;6.140;2023-12-20T10:28:34;95629.59;;;5.72;100.00
21838;BME280;11081;45.946;6.140;2023-12-20T10:31:02;95636.03;;;5.76;100.00
21838;BME280;11081;45.946;6.140;2023-12-20T10:33:30;95628.53;;;5.81;100.00
21838;BME280;11081;45.946;6.140;2023-12-20T10:36:00;95628.63;;;5.88;100.00
21838;BME280;11081;45.946;6.140;2023-12-20T10:38:29;95631.22;;;6.02;100.00
21838;BME280;11081;45.946;6.140;2023-12-20T10:40:58;95618.69;;;6.21;100.00
21838;BME280;11081;45.946;6.140;2023-12-20T10:43:27;95623.66;;;6.37;100.00
21838;BME280;11081;45.946;6.140;2023-12-20T10:45:57;95629.63;;;6.52;100.00
21838;BME280;11081;45.946;6.140;2023-12-20T10:48:25;95629.50;;;6.60;100.00
21838;BME280;11081;45.946;6.140;2023-12-20T10:50:57;95614.47;;;6.70;100.00
21838;BME280;11081;45.946;6.140;2023-12-20T10:53:25;95619.34;;;6.80;100.00
21838;BME280;11081;45.946;6.140;2023-12-20T10:55:56;95615.19;;;6.86;100.00
21838;BME280;11081;45.946;6.140;2023-12-20T10:58:29;95618.03;;;6.91;100.00
21838;BME280;11081;45.946;6.140;2023-12-20T11:01:00;95616.69;;;6.95;100.00
21838;BME280;11081;45.946;6.140;2023-12-20T11:03:32;95610.75;;;7.01;100.00
21838;BME280;11081;45.946;6.140;2023-12-20T11:06:08;95606.44;;;7.08;100.00
21838;BME280;11081;45.946;6.140;2023-12-20T11:08:44;95606.44;;;7.08;100.00
21838;BME280;11081;45.946;6.140;2023-12-20T11:11:21;95607.66;;;7.12;100.00
21838;BME280;11081;45.946;6.140;2023-12-20T11:13:57;95611.47;;;7.16;100.00
21838;BME280;11081;45.946;6.140;2023-12-20T11:16:27;95607.28;;;7.15;100.00
21838;BME280;11081;45.946;6.140;2023-12-20T11:19:11;95610.47;;;7.17;100.00
21838;BME280;11081;45.946;6.140;2023-12-20T11:21:40;95608.13;;;7.22;100.00
21838;BME280;11081;45.946;6.140;2023-12-20T11:24:09;95610.13;;;7.27;100.00
21838;BME280;11081;45.946;6.140;2023-12-20T11:26:46;95607.50;;;7.20;100.00
21838;BME280;11081;45.946;6.140;2023-12-20T11:29:33;95597.31;;;7.19;100.00
21838;BME280;11081;45.946;6.140;2023-12-20T11:32:03;95599.72;;;7.20;100.00
21838;BME280;11081;45.946;6.140;2023-12-20T11:34:32;95601.69;;;7.18;100.00
21838;BME280;11081;45.946;6.140;2023-12-20T11:37:02;95606.03;;;7.11;100.00
21838;BME280;11081;45.946;6.140;2023-12-20T11:39:31;95607.56;;;7.06;100.00
21838;BME280;11081;45.946;6.140;2023-12-20T11:42:05;95606.03;;;7.11;100.00
21838;BME280;11081;45.946;6.140;2023-12-20T11:44:35;95601.13;;;7.23;100.00
21838;BME280;11081;45.946;6.140;2023-12-20T11:47:04;95588.22;;;7.29;100.00
21838;BME280;11081;45.946;6.140;2023-12-20T11:49:32;95582.66;;;7.32;100.00
21838;BME280;11081;45.946;6.140;2023-12-20T11:52:00;95581.69;;;7.12;100.00
21838;BME280;11081;45.946;6.140;2023-12-20T11:54:30;95582.50;;;7.13;100.00
21838;BME280;11081;45.946;6.140;2023-12-20T11:56:58;95579.09;;;7.12;100.00
21838;BME280;11081;45.946;6.140;2023-12-20T11:59:27;95578.72;;;7.15;100.00
21838;BME280;11081;45.946;6.140;2023-12-20T12:01:55;95582.53;;;7.19;100.00
21838;BME280;11081;45.946;6.140;2023-12-20T12:04:28;95580.56;;;7.21;100.00
21838;BME280;11081;45.946;6.140;2023-12-20T12:06:56;95572.16;;;7.19;100.00
21838;BME280;11081;45.946;6.140;2023-12-20T12:09:24;95569.78;;;7.24;100.00
21838;BME280;11081;45.946;6.140;2023-12-20T12:11:52;95568.66;;;7.33;100.00
21838;BME280;11081;45.946;6.140;2023-12-20T12:14:20;95568.28;;;7.37;100.00
21838;BME280;11081;45.946;6.140;2023-12-20T12:16:49;95570.28;;;7.34;100.00
21838;BME280;11081;45.946;6.140;2023-12-20T12:19:20;95569.91;;;7.38;100.00
21838;BME280;11081;45.946;6.140;2023-12-20T12:21:49;95567.44;;;7.29;100.00
21838;BME280;11081;45.946;6.140;2023-12-20T12:24:20;95562.25;;;7.29;100.00
21838;BME280;11081;45.946;6.140;2023-12-20T12:26:52;95558.69;;;7.30;100.00
21838;BME280;11081;45.946;6.140;2023-12-20T12:29:20;95564.88;;;7.36;100.00
21838;BME280;11081;45.946;6.140;2023-12-20T12:31:49;95565.47;;;7.31;100.00
21838;BME280;11081;45.946;6.140;2023-12-20T12:34:17;95562.88;;;7.31;100.00
21838;BME280;11081;45.946;6.140;2023-12-20T12:36:46;95557.44;;;7.26;100.00
21838;BME280;11081;45.946;6.140;2023-12-20T12:39:15;95559.03;;;7.27;100.00
21838;BME280;11081;45.946;6.140;2023-12-20T12:41:43;95553.00;;;7.20;100.00
21838;BME280;11081;45.946;6.140;2023-12-20T12:44:11;95560.16;;;7.18;100.00
21838;BME280;11081;45.946;6.140;2023-12-20T12:46:44;95551.25;;;7.27;100.00
21838;BME280;11081;45.946;6.140;2023-12-20T12:49:14;95557.81;;;7.23;100.00
21838;BME280;11081;45.946;6.140;2023-12-20T12:51:42;95554.97;;;7.18;100.00
21838;BME280;11081;45.946;6.140;2023-12-20T12:54:11;95561.53;;;7.14;100.00
21838;BME280;11081;45.946;6.140;2023-12-20T12:56:39;95567.34;;;7.16;100.00
21838;BME280;11081;45.946;6.140;2023-12-20T12:59:08;95556.13;;;7.09;100.00
21838;BME280;11081;45.946;6.140;2023-12-20T13:01:36;95565.75;;;7.15;100.00
21838;BME280;11081;45.946;6.140;2023-12-20T13:04:06;95567.16;;;7.18;100.00
21838;BME280;11081;45.946;6.140;2023-12-20T13:06:39;95569.38;;;7.21;100.00
21838;BME280;11081;45.946;6.140;2023-12-20T13:09:08;95572.56;;;7.23;100.00
21838;BME280;11081;45.946;6.140;2023-12-20T13:11:36;95562.00;;;7.24;100.00
21838;BME280;11081;45.946;6.140;2023-12-20T13:14:04;95564.22;;;7.27;100.00